createdAt,value
2023-01-25T00:00:45.644Z,102277.22
2023-01-25T00:03:14.796Z,102273.75
2023-01-25T00:05:42.597Z,102272.91
2023-01-25T00:08:10.413Z,102266.72
2023-01-25T00:10:39.375Z,102268.56
2023-01-25T00:13:07.150Z,102278.16
2023-01-25T00:15:35.001Z,102270.25
2023-01-25T00:18:02.732Z,102258.84
2023-01-25T00:20:31.824Z,102260.53
2023-01-25T00:22:59.514Z,102260.50
2023-01-25T00:25:27.182Z,102260.50
2023-01-25T00:27:54.880Z,102258.75
2023-01-25T00:30:22.599Z,102257.88
2023-01-25T00:32:55.551Z,102245.69
2023-01-25T00:35:23.414Z,102247.47
2023-01-25T00:37:54.989Z,102243.91
2023-01-25T00:40:22.788Z,102246.50
2023-01-25T00:42:50.570Z,102243.03
2023-01-25T00:45:19.092Z,102236.88
2023-01-25T00:47:46.901Z,102240.34
2023-01-25T00:50:14.639Z,102238.63
2023-01-25T00:52:42.389Z,102237.72
2023-01-25T00:55:11.610Z,102235.06
2023-01-25T00:57:39.368Z,102230.66
2023-01-25T01:00:08.429Z,102233.28
2023-01-25T01:02:36.184Z,102228.94
2023-01-25T01:05:04.060Z,102233.34
2023-01-25T01:07:31.890Z,102222.84
2023-01-25T01:10:00.348Z,102222.84
2023-01-25T01:12:29.495Z,102221.06
2023-01-25T01:14:57.696Z,102213.19
2023-01-25T01:17:25.516Z,102209.75
2023-01-25T01:19:53.248Z,102221.16
2023-01-25T01:22:20.979Z,102213.28
2023-01-25T01:24:48.842Z,102219.41
2023-01-25T01:27:16.574Z,102215.94
2023-01-25T01:29:45.834Z,102217.66
2023-01-25T01:32:13.795Z,102221.16
2023-01-25T01:34:41.528Z,102215.91
2023-01-25T01:37:09.247Z,102222.91
2023-01-25T01:39:37.029Z,102222.03
2023-01-25T01:42:05.466Z,102215.00
2023-01-25T01:44:47.979Z,102218.53
2023-01-25T01:47:22.343Z,102210.69
2023-01-25T01:49:53.977Z,102211.53
2023-01-25T01:52:25.955Z,102207.19
2023-01-25T01:54:57.504Z,102202.81
2023-01-25T01:57:29.982Z,102205.44
2023-01-25T02:00:03.879Z,102208.94
2023-01-25T02:02:31.669Z,102211.63
2023-01-25T02:05:02.360Z,102199.41
2023-01-25T02:07:35.176Z,102205.44
2023-01-25T02:10:03.631Z,102206.34
2023-01-25T02:12:31.660Z,102201.13
2023-01-25T02:15:00.687Z,102206.38
2023-01-25T02:17:31.199Z,102205.53
2023-01-25T02:20:04.024Z,102194.09
2023-01-25T02:22:38.886Z,102200.25
2023-01-25T02:25:10.214Z,102200.28
2023-01-25T02:27:40.670Z,102197.72
2023-01-25T02:30:09.996Z,102196.81
2023-01-25T02:32:37.820Z,102196.81
2023-01-25T02:35:06.809Z,102205.53
2023-01-25T02:37:35.123Z,102197.66
2023-01-25T02:40:02.921Z,102184.53
2023-01-25T02:42:33.275Z,102188.88
2023-01-25T02:45:01.000Z,102184.50
2023-01-25T02:47:28.710Z,102182.75
2023-01-25T02:49:56.389Z,102186.22
2023-01-25T02:52:24.095Z,102183.59
2023-01-25T02:54:51.841Z,102188.03
2023-01-25T02:57:21.135Z,102183.66
2023-01-25T02:59:51.419Z,102181.03
2023-01-25T03:02:19.164Z,102180.09
2023-01-25T03:04:46.952Z,102171.34
2023-01-25T03:07:14.699Z,102182.75
2023-01-25T03:09:42.432Z,102177.53
2023-01-25T03:12:10.184Z,102181.88
2023-01-25T03:14:37.892Z,102176.66
2023-01-25T03:17:06.987Z,102181.97
2023-01-25T03:19:34.784Z,102185.50
2023-01-25T03:22:03.240Z,102183.75
2023-01-25T03:24:31.241Z,102181.13
2023-01-25T03:27:14.452Z,102169.75
2023-01-25T03:29:42.584Z,102173.25
2023-01-25T03:32:12.059Z,102167.13
2023-01-25T03:34:40.288Z,102163.56
2023-01-25T03:37:08.402Z,102172.38
2023-01-25T03:39:36.107Z,102168.91
2023-01-25T03:42:03.868Z,102168.94
2023-01-25T03:44:31.620Z,102171.56
2023-01-25T03:46:59.451Z,102170.72
2023-01-25T03:49:28.657Z,102168.16
2023-01-25T03:51:57.972Z,102169.88
2023-01-25T03:54:25.795Z,102164.63
2023-01-25T03:56:53.491Z,102162.00
2023-01-25T03:59:21.264Z,102165.53
2023-01-25T04:01:49.016Z,102165.47
2023-01-25T04:04:16.824Z,102164.59
2023-01-25T04:06:45.958Z,102162.00
2023-01-25T04:09:14.758Z,102162.00
2023-01-25T04:11:42.528Z,102164.66
2023-01-25T04:14:11.825Z,102161.16
2023-01-25T04:16:39.575Z,102167.31
2023-01-25T04:19:07.464Z,102163.84
2023-01-25T04:21:35.213Z,102158.59
2023-01-25T04:24:04.577Z,102155.91
2023-01-25T04:26:32.320Z,102158.53
2023-01-25T04:29:00.025Z,102145.47
2023-01-25T04:31:27.879Z,102152.50
2023-01-25T04:33:56.466Z,102154.19
2023-01-25T04:36:24.160Z,102144.56
2023-01-25T04:38:51.870Z,102149.88
2023-01-25T04:41:21.006Z,102142.94
2023-01-25T04:43:48.727Z,102146.44
2023-01-25T04:46:16.651Z,102149.13
2023-01-25T04:48:44.362Z,102148.22
2023-01-25T04:51:12.159Z,102151.69
2023-01-25T04:53:39.953Z,102156.13
2023-01-25T04:56:08.360Z,102155.31
2023-01-25T04:58:37.466Z,102147.44
2023-01-25T05:01:05.549Z,102148.31
2023-01-25T05:03:33.833Z,102146.53
2023-01-25T05:06:01.625Z,102148.28
2023-01-25T05:08:29.428Z,102146.59
2023-01-25T05:10:57.157Z,102153.63
2023-01-25T05:13:24.886Z,102137.88
2023-01-25T05:15:53.917Z,102137.88
2023-01-25T05:18:21.640Z,102139.66
2023-01-25T05:20:49.388Z,102135.25
2023-01-25T05:23:17.095Z,102132.63
2023-01-25T05:26:07.990Z,102130.00
2023-01-25T05:28:35.687Z,102135.25
2023-01-25T05:31:06.597Z,102124.78
2023-01-25T05:33:34.445Z,102129.19
2023-01-25T05:36:02.156Z,102117.81
2023-01-25T05:38:30.423Z,102123.94
2023-01-25T05:40:59.510Z,102107.31
2023-01-25T05:43:27.271Z,102109.94
2023-01-25T05:45:55.076Z,102110.81
2023-01-25T05:48:24.262Z,102112.56
2023-01-25T05:50:52.078Z,102098.59
2023-01-25T05:53:19.825Z,102109.09
2023-01-25T05:55:47.571Z,102104.69
2023-01-25T05:58:15.381Z,102098.59
2023-01-25T06:00:43.111Z,102099.47
2023-01-25T06:03:10.977Z,102101.25
2023-01-25T06:05:40.175Z,102097.78
2023-01-25T06:08:07.878Z,102093.44
2023-01-25T06:10:36.153Z,102101.31
2023-01-25T06:13:03.919Z,102096.94
2023-01-25T06:15:31.714Z,102099.56
2023-01-25T06:17:59.446Z,102101.25
2023-01-25T06:20:27.129Z,102094.31
2023-01-25T06:22:56.220Z,102102.19
2023-01-25T06:25:23.999Z,102101.31
2023-01-25T06:27:51.730Z,102097.00
2023-01-25T06:30:19.719Z,102097.00
2023-01-25T06:32:47.461Z,102099.63
2023-01-25T06:35:15.523Z,102108.34
2023-01-25T06:37:43.369Z,102110.06
2023-01-25T06:40:13.473Z,102116.22
2023-01-25T06:42:41.205Z,102112.75
2023-01-25T06:45:10.703Z,102108.34
2023-01-25T06:47:38.673Z,102107.50
2023-01-25T06:50:07.176Z,102107.44
2023-01-25T06:52:36.506Z,102110.97
2023-01-25T06:55:04.628Z,102109.19
2023-01-25T06:57:34.101Z,102110.88
2023-01-25T07:00:02.030Z,102114.44
2023-01-25T07:02:29.814Z,102113.53
2023-01-25T07:04:57.536Z,102109.19
2023-01-25T07:07:25.240Z,102109.19
2023-01-25T07:09:52.960Z,102108.34
2023-01-25T07:12:20.713Z,102102.19
2023-01-25T07:14:49.765Z,102110.91
2023-01-25T07:17:17.468Z,102099.56
2023-01-25T07:19:45.223Z,102100.47
2023-01-25T07:22:13.018Z,102106.56
2023-01-25T07:24:40.837Z,102095.16
2023-01-25T07:27:08.753Z,102088.13
2023-01-25T07:29:36.431Z,102091.59
2023-01-25T07:32:06.631Z,102095.91
2023-01-25T07:34:34.376Z,102086.31
2023-01-25T07:37:02.113Z,102088.88
2023-01-25T07:39:29.939Z,102092.41
2023-01-25T07:41:57.996Z,102088.09
2023-01-25T07:44:25.769Z,102085.38
2023-01-25T07:46:55.093Z,102091.47
2023-01-25T07:49:24.272Z,102095.78
2023-01-25T07:51:51.995Z,102096.53
2023-01-25T07:54:19.730Z,102100.84
2023-01-25T07:56:47.521Z,102094.63
2023-01-25T07:59:15.507Z,102090.97
2023-01-25T08:01:43.226Z,102095.38
2023-01-25T08:04:11.069Z,102094.41
2023-01-25T08:06:40.369Z,102098.72
2023-01-25T08:09:12.717Z,102099.66
2023-01-25T08:11:40.625Z,102097.91
2023-01-25T08:14:09.055Z,102099.59
2023-01-25T08:16:37.002Z,102092.63
2023-01-25T08:19:05.178Z,102094.34
2023-01-25T08:21:34.017Z,102088.22
2023-01-25T08:24:07.159Z,102089.91
2023-01-25T08:26:36.123Z,102084.69
2023-01-25T08:29:04.290Z,102082.03
2023-01-25T08:31:33.851Z,102082.03
2023-01-25T08:34:02.517Z,102081.22
2023-01-25T08:36:30.346Z,102083.00
2023-01-25T08:38:59.939Z,102082.97
2023-01-25T08:41:30.325Z,102083.91
2023-01-25T08:43:58.994Z,102077.81
2023-01-25T08:46:31.899Z,102084.78
2023-01-25T08:49:00.978Z,102069.09
2023-01-25T08:51:29.432Z,102076.03
2023-01-25T08:53:57.151Z,102072.56
2023-01-25T08:56:24.924Z,102071.59
2023-01-25T08:58:53.985Z,102071.50
2023-01-25T09:01:21.796Z,102062.78
2023-01-25T09:03:51.529Z,102065.44
2023-01-25T09:06:20.857Z,102066.38
2023-01-25T09:08:49.166Z,102056.81
2023-01-25T09:11:22.059Z,102061.13
2023-01-25T09:13:49.850Z,102062.94
2023-01-25T09:16:22.857Z,102062.06
2023-01-25T09:18:50.948Z,102064.72
2023-01-25T09:21:20.128Z,102055.97
2023-01-25T09:23:51.216Z,102063.94
2023-01-25T09:26:32.398Z,102057.84
2023-01-25T09:29:00.559Z,102057.91
2023-01-25T09:31:30.483Z,102056.16
2023-01-25T09:33:58.604Z,102056.09
2023-01-25T09:36:26.662Z,102061.34
2023-01-25T09:38:54.711Z,102063.94
2023-01-25T09:41:47.622Z,102066.56
2023-01-25T09:44:37.545Z,102058.72
2023-01-25T09:47:15.350Z,102056.19
2023-01-25T09:49:59.885Z,102058.88
2023-01-25T09:52:54.477Z,102060.72
2023-01-25T09:55:25.610Z,102055.31
2023-01-25T09:57:56.824Z,102060.63
2023-01-25T10:00:31.639Z,102057.28
2023-01-25T10:03:06.705Z,102050.34
2023-01-25T10:05:43.191Z,102057.22
2023-01-25T10:08:23.678Z,102051.16
2023-01-25T10:10:57.095Z,102049.41
2023-01-25T10:13:31.570Z,102048.56
2023-01-25T10:16:09.900Z,102040.53
2023-01-25T10:18:55.396Z,102039.63
2023-01-25T10:21:28.998Z,102036.06
2023-01-25T10:24:27.311Z,102040.44
2023-01-25T10:26:57.882Z,102034.31
2023-01-25T10:29:28.909Z,102023.75
2023-01-25T10:32:03.449Z,102021.09
2023-01-25T10:34:44.068Z,102021.09
2023-01-25T10:37:24.675Z,102021.03
2023-01-25T10:39:58.524Z,102019.22
2023-01-25T10:42:30.789Z,102013.94
2023-01-25T10:44:58.555Z,102011.31
2023-01-25T10:47:29.986Z,102014.03
2023-01-25T10:50:00.250Z,101998.31
2023-01-25T10:52:30.287Z,101987.88
2023-01-25T10:55:15.642Z,101987.06
2023-01-25T10:57:45.359Z,101979.22
2023-01-25T11:00:29.967Z,101982.81
2023-01-25T11:02:58.860Z,101978.38
2023-01-25T11:05:31.215Z,101972.28
2023-01-25T11:08:00.412Z,101971.38
2023-01-25T11:10:33.900Z,101968.78
2023-01-25T11:13:22.912Z,101961.78
2023-01-25T11:15:52.790Z,101959.06
2023-01-25T11:18:23.383Z,101966.06
2023-01-25T11:21:07.134Z,101952.81
2023-01-25T11:23:35.036Z,101954.66
2023-01-25T11:26:14.330Z,101944.16
2023-01-25T11:28:42.301Z,101940.66
2023-01-25T11:31:13.483Z,101933.56
2023-01-25T11:33:42.182Z,101939.69
2023-01-25T11:36:23.621Z,101925.75
2023-01-25T11:39:17.454Z,101922.31
2023-01-25T11:42:03.524Z,101913.66
2023-01-25T11:45:09.212Z,101912.75
2023-01-25T11:47:52.765Z,101901.34
2023-01-25T11:50:28.506Z,101896.97
2023-01-25T11:53:27.403Z,101895.19
2023-01-25T11:56:01.612Z,101887.34
2023-01-25T11:58:54.644Z,101885.50
2023-01-25T12:01:28.726Z,101881.13
2023-01-25T12:04:33.385Z,101876.91
2023-01-25T12:07:04.537Z,101869.84
2023-01-25T12:09:46.348Z,101870.75
2023-01-25T12:12:25.998Z,101866.28
2023-01-25T12:15:18.263Z,101866.28
2023-01-25T12:18:12.941Z,101853.94
2023-01-25T12:21:01.189Z,101853.88
2023-01-25T12:23:42.281Z,101850.41
2023-01-25T12:26:22.241Z,101834.63
2023-01-25T12:28:54.989Z,101838.97
2023-01-25T12:31:27.881Z,101824.09
2023-01-25T12:33:57.756Z,101817.91
2023-01-25T12:36:30.026Z,101807.44
2023-01-25T12:39:02.879Z,101802.16
2023-01-25T12:41:41.188Z,101790.88
2023-01-25T12:44:18.168Z,101787.25
2023-01-25T12:46:52.508Z,101783.75
2023-01-25T12:49:27.733Z,101782.09
2023-01-25T12:52:00.473Z,101779.50
2023-01-25T12:54:33.467Z,101766.34
2023-01-25T12:57:08.401Z,101767.91
2023-01-25T12:59:44.752Z,101761.84
2023-01-25T13:02:43.686Z,101756.59
2023-01-25T13:05:23.284Z,101753.13
2023-01-25T13:07:57.723Z,101755.78
2023-01-25T13:10:30.607Z,101753.13
2023-01-25T13:13:03.727Z,101749.63
2023-01-25T13:15:42.459Z,101751.34
2023-01-25T13:18:39.118Z,101747.06
2023-01-25T13:21:12.477Z,101746.22
2023-01-25T13:23:44.052Z,101749.69
2023-01-25T13:26:46.858Z,101748.03
2023-01-25T13:29:54.326Z,101753.25
2023-01-25T13:33:01.570Z,101741.94
2023-01-25T13:35:36.866Z,101740.28
2023-01-25T13:38:24.595Z,101747.41
2023-01-25T13:41:04.932Z,101725.50
2023-01-25T13:43:32.717Z,101724.63
2023-01-25T13:46:00.469Z,101715.81
2023-01-25T13:48:38.342Z,101701.03
2023-01-25T13:51:11.379Z,101696.50
2023-01-25T13:53:39.777Z,101696.63
2023-01-25T13:56:29.697Z,101691.47
2023-01-25T13:58:57.654Z,101684.53
2023-01-25T14:01:25.780Z,101687.16
2023-01-25T14:03:59.504Z,101687.16
2023-01-25T14:06:30.876Z,101678.50
2023-01-25T14:09:03.079Z,101681.91
2023-01-25T14:11:32.509Z,101677.41
2023-01-25T14:14:02.707Z,101677.47
2023-01-25T14:16:32.159Z,101678.25
2023-01-25T14:19:24.211Z,101683.41
2023-01-25T14:22:19.633Z,101673.66
2023-01-25T14:24:47.468Z,101671.94
2023-01-25T14:27:17.871Z,101674.47
2023-01-25T14:29:49.766Z,101656.94
2023-01-25T14:32:21.638Z,101654.16
2023-01-25T14:34:49.418Z,101642.94
2023-01-25T14:37:20.786Z,101652.66
2023-01-25T14:39:50.798Z,101646.69
2023-01-25T14:42:19.478Z,101643.38
2023-01-25T14:44:47.949Z,101646.00
2023-01-25T14:47:31.716Z,101637.19
2023-01-25T14:50:33.250Z,101628.22
2023-01-25T14:53:16.565Z,101630.75
2023-01-25T14:55:45.831Z,101631.59
2023-01-25T14:58:18.496Z,101623.63
2023-01-25T15:00:53.367Z,101622.66
2023-01-25T15:03:22.509Z,101627.03
2023-01-25T15:05:50.555Z,101624.41
2023-01-25T15:08:29.070Z,101620.97
2023-01-25T15:10:58.195Z,101614.00
2023-01-25T15:13:27.665Z,101600.94
2023-01-25T15:15:58.267Z,101601.84
2023-01-25T15:18:42.967Z,101591.25
2023-01-25T15:21:11.834Z,101587.75
2023-01-25T15:23:41.765Z,101585.06
2023-01-25T15:26:15.817Z,101578.09
2023-01-25T15:28:43.639Z,101582.50
2023-01-25T15:31:18.732Z,101578.13
2023-01-25T15:33:46.620Z,101585.22
2023-01-25T15:36:16.075Z,101584.28
2023-01-25T15:38:45.745Z,101586.84
2023-01-25T15:41:13.860Z,101572.06
2023-01-25T15:43:41.934Z,101573.81
2023-01-25T15:46:17.375Z,101569.41
2023-01-25T15:48:46.943Z,101560.53
2023-01-25T15:51:15.357Z,101555.31
2023-01-25T15:53:43.292Z,101550.88
2023-01-25T15:56:15.612Z,101556.09
2023-01-25T15:58:46.498Z,101552.69
2023-01-25T16:01:14.436Z,101551.00
2023-01-25T16:03:42.345Z,101559.84
2023-01-25T16:06:25.185Z,101558.91
2023-01-25T16:08:52.995Z,101551.97
2023-01-25T16:11:22.141Z,101559.75
2023-01-25T16:13:50.079Z,101557.00
2023-01-25T16:16:21.772Z,101560.41
2023-01-25T16:18:49.569Z,101553.38
2023-01-25T16:21:17.985Z,101557.78
2023-01-25T16:23:45.864Z,101562.25
2023-01-25T16:26:19.812Z,101558.78
2023-01-25T16:28:49.060Z,101561.41
2023-01-25T16:31:31.330Z,101564.13
2023-01-25T16:34:00.772Z,101553.69
2023-01-25T16:36:28.805Z,101552.78
2023-01-25T16:38:56.621Z,101561.53
2023-01-25T16:41:24.455Z,101559.03
2023-01-25T16:43:53.653Z,101554.63
2023-01-25T16:46:23.683Z,101544.91
2023-01-25T16:48:53.273Z,101551.06
2023-01-25T16:51:23.024Z,101553.53
2023-01-25T16:53:52.432Z,101555.41
2023-01-25T16:56:22.685Z,101546.72
2023-01-25T16:58:51.628Z,101546.72
2023-01-25T17:01:22.320Z,101550.09
2023-01-25T17:03:50.399Z,101550.16
2023-01-25T17:06:20.284Z,101534.44
2023-01-25T17:08:48.803Z,101534.47
2023-01-25T17:11:18.846Z,101533.63
2023-01-25T17:13:50.264Z,101531.03
2023-01-25T17:16:18.112Z,101527.50
2023-01-25T17:18:47.739Z,101528.38
2023-01-25T17:21:17.704Z,101527.56
2023-01-25T17:23:45.619Z,101519.72
2023-01-25T17:26:15.125Z,101527.59
2023-01-25T17:28:44.336Z,101530.22
2023-01-25T17:31:16.541Z,101520.56
2023-01-25T17:33:44.406Z,101519.66
2023-01-25T17:36:15.186Z,101519.66
2023-01-25T17:38:43.597Z,101511.78
2023-01-25T17:41:13.792Z,101515.31
2023-01-25T17:43:42.114Z,101511.00
2023-01-25T17:46:14.315Z,101505.78
2023-01-25T17:48:42.488Z,101511.94
2023-01-25T17:51:10.254Z,101511.94
2023-01-25T17:53:39.477Z,101499.66
2023-01-25T17:56:08.680Z,101496.91
2023-01-25T17:58:37.679Z,101497.22
2023-01-25T18:01:14.099Z,101495.53
2023-01-25T18:03:42.206Z,101485.91
2023-01-25T18:06:10.194Z,101485.97
2023-01-25T18:08:40.680Z,101481.56
2023-01-25T18:11:10.423Z,101480.63
2023-01-25T18:13:40.792Z,101470.00
2023-01-25T18:16:09.729Z,101474.59
2023-01-25T18:18:42.633Z,101478.13
2023-01-25T18:21:13.762Z,101473.78
2023-01-25T18:23:47.187Z,101464.97
2023-01-25T18:26:18.854Z,101462.34
2023-01-25T18:28:47.088Z,101459.81
2023-01-25T18:31:17.485Z,101458.06
2023-01-25T18:33:45.631Z,101457.28
2023-01-25T18:36:15.085Z,101457.31
2023-01-25T18:38:44.261Z,101447.66
2023-01-25T18:41:12.914Z,101450.25
2023-01-25T18:43:40.695Z,101441.53
2023-01-25T18:46:08.704Z,101439.81
2023-01-25T18:48:36.506Z,101445.16
2023-01-25T18:51:07.998Z,101441.53
2023-01-25T18:53:37.797Z,101439.81
2023-01-25T18:56:09.151Z,101443.34
2023-01-25T18:58:38.320Z,101442.44
2023-01-25T19:01:08.882Z,101443.41
2023-01-25T19:03:36.835Z,101443.38
2023-01-25T19:06:05.433Z,101438.97
2023-01-25T19:08:35.618Z,101435.53
2023-01-25T19:11:06.007Z,101432.91
2023-01-25T19:13:36.254Z,101425.94
2023-01-25T19:16:05.369Z,101421.53
2023-01-25T19:18:35.254Z,101423.31
2023-01-25T19:21:03.617Z,101424.00
2023-01-25T19:23:33.773Z,101424.19
2023-01-25T19:26:01.675Z,101416.31
2023-01-25T19:28:29.837Z,101418.91
2023-01-25T19:31:06.340Z,101419.00
2023-01-25T19:33:34.286Z,101416.44
2023-01-25T19:36:04.284Z,101423.53
2023-01-25T19:38:32.392Z,101419.16
2023-01-25T19:41:05.162Z,101413.91
2023-01-25T19:43:33.252Z,101414.88
2023-01-25T19:46:09.848Z,101408.78
2023-01-25T19:48:38.625Z,101411.41
2023-01-25T19:51:11.167Z,101396.53
2023-01-25T19:53:39.363Z,101394.00
2023-01-25T19:56:09.183Z,101395.78
2023-01-25T19:58:37.038Z,101394.00
2023-01-25T20:01:10.688Z,101392.22
2023-01-25T20:03:39.027Z,101385.31
2023-01-25T20:06:08.314Z,101384.38
2023-01-25T20:08:38.290Z,101379.13
2023-01-25T20:11:08.228Z,101381.75
2023-01-25T20:13:36.004Z,101373.00
2023-01-25T20:16:04.028Z,101376.63
2023-01-25T20:18:33.628Z,101371.41
2023-01-25T20:21:03.337Z,101364.38
2023-01-25T20:23:33.400Z,101366.09
2023-01-25T20:26:03.078Z,101365.28
2023-01-25T20:28:31.013Z,101368.81
2023-01-25T20:31:01.656Z,101353.00
2023-01-25T20:33:29.485Z,101350.44
2023-01-25T20:36:01.700Z,101346.13
2023-01-25T20:38:33.357Z,101348.00
2023-01-25T20:41:02.375Z,101348.09
2023-01-25T20:43:31.458Z,101340.28
2023-01-25T20:45:59.970Z,101335.94
2023-01-25T20:48:28.660Z,101340.41
2023-01-25T20:51:03.214Z,101336.97
2023-01-25T20:53:31.163Z,101336.13
2023-01-25T20:55:59.961Z,101334.38
2023-01-25T20:58:27.907Z,101336.78
2023-01-25T21:00:56.452Z,101341.19
2023-01-25T21:03:25.246Z,101336.81
2023-01-25T21:05:54.208Z,101338.53
2023-01-25T21:08:24.458Z,101333.25
2023-01-25T21:10:53.539Z,101330.69
2023-01-25T21:13:22.105Z,101326.44
2023-01-25T21:16:00.317Z,101328.16
2023-01-25T21:18:32.696Z,101329.88
2023-01-25T21:21:02.194Z,101330.72
2023-01-25T21:23:33.433Z,101327.22
2023-01-25T21:26:01.775Z,101335.03
2023-01-25T21:28:29.976Z,101329.72
2023-01-25T21:30:57.796Z,101324.47
2023-01-25T21:33:25.940Z,101321.94
2023-01-25T21:35:55.000Z,101322.06
2023-01-25T21:38:24.867Z,101319.41
2023-01-25T21:40:53.981Z,101313.22
2023-01-25T21:43:21.749Z,101319.47
2023-01-25T21:46:06.929Z,101305.53
2023-01-25T21:48:52.400Z,101315.97
2023-01-25T21:51:39.743Z,101308.06
2023-01-25T21:54:07.673Z,101311.63
2023-01-25T21:56:36.805Z,101311.69
2023-01-25T21:59:04.713Z,101306.31
2023-01-25T22:01:32.694Z,101309.81
2023-01-25T22:04:00.446Z,101304.63
2023-01-25T22:06:28.664Z,101298.66
2023-01-25T22:08:56.484Z,101293.38
2023-01-25T22:11:24.347Z,101292.38
2023-01-25T22:13:53.551Z,101294.16
2023-01-25T22:16:22.381Z,101284.53
2023-01-25T22:18:50.721Z,101277.66
2023-01-25T22:21:20.465Z,101272.38
2023-01-25T22:23:49.047Z,101275.06
2023-01-25T22:26:18.517Z,101274.34
2023-01-25T22:28:48.560Z,101266.56
2023-01-25T22:31:19.472Z,101273.41
2023-01-25T22:33:47.646Z,101272.59
2023-01-25T22:36:17.551Z,101268.44
2023-01-25T22:38:45.354Z,101263.22
2023-01-25T22:41:15.278Z,101259.78
2023-01-25T22:43:43.445Z,101257.06
2023-01-25T22:46:13.176Z,101249.25
2023-01-25T22:48:42.318Z,101245.75
2023-01-25T22:51:12.680Z,101243.06
2023-01-25T22:53:40.403Z,101248.31
2023-01-25T22:56:10.877Z,101249.13
2023-01-25T22:58:40.338Z,101238.69
2023-01-25T23:01:10.342Z,101230.84
2023-01-25T23:03:38.166Z,101224.78
2023-01-25T23:06:11.998Z,101216.09
2023-01-25T23:08:40.683Z,101217.78
2023-01-25T23:11:11.306Z,101212.59
2023-01-25T23:13:39.869Z,101212.63
2023-01-25T23:16:10.135Z,101199.59
2023-01-25T23:18:52.204Z,101202.94
2023-01-25T23:21:23.446Z,101197.69
2023-01-25T23:23:52.985Z,101192.41
2023-01-25T23:26:21.344Z,101194.19
2023-01-25T23:28:51.230Z,101188.03
2023-01-25T23:31:19.904Z,101187.91
2023-01-25T23:33:49.871Z,101184.47
2023-01-25T23:36:19.288Z,101174.94
2023-01-25T23:38:49.392Z,101169.56
2023-01-25T23:41:18.607Z,101165.38
2023-01-25T23:43:46.799Z,101163.59
2023-01-25T23:46:15.290Z,101166.19
2023-01-25T23:48:43.604Z,101160.88
2023-01-25T23:51:12.049Z,101160.78
2023-01-25T23:53:40.643Z,101158.06
2023-01-25T23:56:13.764Z,101163.28
2023-01-25T23:58:41.884Z,101152.00
